Time;durP1;ratioP1;P1;durP2;ratioP2;P2;SDS_P1;SDS_P2;PMS_P1;PMS_P2;Temp;Humidity;BMP_temperature;BMP_pressure;BME280_temperature;BME280_humidity;BME280_pressure;Samples;Min_cycle;Max_cycle;Signal;HPM_P1;HPM_P2
2024/03/02 00:00:51;;;;;;;5.25;2.78;;;7.60;99.90;;;;;;5072340;28;20047;-71
2024/03/02 00:03:18;;;;;;;6.05;3.08;;;7.60;99.90;;;;;;5070953;28;20515;-70
2024/03/02 00:05:44;;;;;;;4.28;2.50;;;7.60;99.90;;;;;;5072972;28;20047;-71
2024/03/02 00:08:09;;;;;;;6.85;3.00;;;7.50;99.90;;;;;;5072297;28;20120;-70
2024/03/02 00:10:39;;;;;;;4.32;2.70;;;7.50;99.90;;;;;;5071400;28;20101;-70
2024/03/02 00:13:06;;;;;;;5.38;2.90;;;7.50;99.90;;;;;;5072606;28;20048;-71
2024/03/02 00:15:44;;;;;;;4.18;3.15;;;7.60;99.90;;;;;;5071212;28;20385;-71
2024/03/02 00:18:34;;;;;;;5.68;3.30;;;7.50;99.90;;;;;;5072474;28;20451;-70
2024/03/02 00:21:00;;;;;;;7.22;4.25;;;7.50;99.90;;;;;;5072104;28;20044;-71
2024/03/02 00:23:33;;;;;;;4.43;3.10;;;7.50;99.90;;;;;;5072484;28;20082;-71
2024/03/02 00:25:59;;;;;;;5.38;3.17;;;7.40;99.90;;;;;;5071928;28;20082;-71
2024/03/02 00:28:36;;;;;;;4.72;2.92;;;7.40;99.90;;;;;;5070787;28;20079;-71
2024/03/02 00:31:13;;;;;;;5.10;3.28;;;7.40;99.90;;;;;;5071013;28;20485;-71
2024/03/02 00:33:45;;;;;;;7.07;3.55;;;7.40;99.90;;;;;;5071013;28;20110;-71
2024/03/02 00:36:19;;;;;;;5.20;3.28;;;7.30;99.90;;;;;;5070887;28;20040;-71
2024/03/02 00:38:49;;;;;;;;;;;7.30;99.90;;;;;;5071524;28;20446;-71
2024/03/02 00:41:27;;;;;;;5.68;4.05;;;7.30;99.90;;;;;;5070625;28;20380;-71
2024/03/02 00:44:08;;;;;;;6.30;3.47;;;7.30;99.90;;;;;;5071238;28;20540;-71
2024/03/02 00:46:34;;;;;;;4.70;3.40;;;7.30;99.90;;;;;;5070903;28;20040;-70
2024/03/02 00:49:02;;;;;;;6.95;3.60;;;7.30;99.90;;;;;;5070161;28;20044;-71
2024/03/02 00:51:30;;;;;;;6.03;4.15;;;7.30;99.90;;;;;;5070496;28;20380;-71
2024/03/02 00:53:58;;;;;;;4.95;3.25;;;7.30;99.90;;;;;;5070744;28;20044;-70
2024/03/02 00:56:25;;;;;;;6.20;3.70;;;7.30;99.90;;;;;;5070884;28;20125;-70
2024/03/02 00:58:51;;;;;;;7.78;4.30;;;7.30;99.90;;;;;;5070338;28;20442;-71
2024/03/02 01:01:17;;;;;;;5.88;4.32;;;7.30;99.90;;;;;;5070047;28;20045;-71
2024/03/02 01:03:43;;;;;;;6.28;4.05;;;7.30;99.90;;;;;;5070479;28;20518;-71
2024/03/02 01:06:09;;;;;;;5.38;3.75;;;7.30;99.90;;;;;;5070496;28;20098;-71
2024/03/02 01:08:35;;;;;;;6.10;3.83;;;7.30;99.90;;;;;;5071556;28;20028;-70
2024/03/02 01:11:02;;;;;;;6.75;3.92;;;7.40;99.90;;;;;;5071280;28;20115;-70
2024/03/02 01:13:27;;;;;;;5.82;3.80;;;7.40;99.90;;;;;;5071478;28;20059;-71
2024/03/02 01:15:53;;;;;;;7.93;4.72;;;7.40;99.90;;;;;;5070943;28;20507;-71
2024/03/02 01:18:19;;;;;;;6.07;3.88;;;7.30;99.90;;;;;;5071237;28;20452;-71
2024/03/02 01:20:45;;;;;;;6.63;4.15;;;7.40;99.90;;;;;;5071245;28;20037;-70
2024/03/02 01:23:10;;;;;;;6.78;4.32;;;7.40;99.90;;;;;;5071706;28;20048;-71
2024/03/02 01:25:36;;;;;;;8.00;4.35;;;7.40;99.90;;;;;;5071455;28;20488;-70
2024/03/02 01:28:01;;;;;;;5.88;4.00;;;7.40;99.90;;;;;;5071500;28;20035;-70
2024/03/02 01:30:27;;;;;;;6.18;4.32;;;7.40;99.90;;;;;;5071237;28;20044;-70
2024/03/02 01:32:53;;;;;;;7.60;4.70;;;7.50;99.90;;;;;;5070884;28;20086;-70
2024/03/02 01:35:18;;;;;;;5.40;3.90;;;7.40;99.90;;;;;;5070064;28;20458;-70
2024/03/02 01:37:44;;;;;;;7.78;4.57;;;7.50;99.90;;;;;;5071282;28;20052;-70
2024/03/02 01:40:11;;;;;;;7.82;4.35;;;7.50;99.90;;;;;;5070994;28;20032;-70
2024/03/02 01:42:37;;;;;;;6.05;4.00;;;7.50;99.90;;;;;;5069651;28;20032;-70
2024/03/02 01:45:07;;;;;;;7.65;4.50;;;7.50;99.90;;;;;;5071152;28;20385;-70
2024/03/02 01:47:33;;;;;;;7.20;4.47;;;7.60;99.90;;;;;;5071410;28;20043;-70
2024/03/02 01:49:59;;;;;;;7.55;4.68;;;7.60;99.90;;;;;;5071024;28;20033;-70
2024/03/02 01:52:26;;;;;;;6.32;4.03;;;7.60;99.90;;;;;;5069525;28;20036;-70
2024/03/02 01:54:51;;;;;;;6.40;4.47;;;7.60;99.90;;;;;;5071276;28;20041;-70
2024/03/02 01:57:18;;;;;;;6.88;4.90;;;7.60;99.90;;;;;;5069863;28;20492;-70
2024/03/02 01:59:44;;;;;;;10.30;5.28;;;7.60;99.90;;;;;;5069676;28;20105;-70
2024/03/02 02:02:09;;;;;;;7.47;4.38;;;7.60;99.90;;;;;;5069642;28;20400;-70
2024/03/02 02:04:35;;;;;;;7.22;4.50;;;7.50;99.90;;;;;;5069838;28;20044;-70
2024/03/02 02:07:01;;;;;;;6.47;4.90;;;7.60;99.90;;;;;;5071201;28;20040;-70
2024/03/02 02:09:26;;;;;;;6.88;4.72;;;7.50;99.90;;;;;;5070734;28;20037;-70
2024/03/02 02:11:52;;;;;;;8.18;5.18;;;7.60;99.90;;;;;;5069231;28;20407;-70
2024/03/02 02:14:18;;;;;;;8.35;5.05;;;7.60;99.90;;;;;;5069710;28;20068;-70
2024/03/02 02:16:44;;;;;;;7.00;4.60;;;7.50;99.90;;;;;;5069668;28;20045;-70
2024/03/02 02:19:10;;;;;;;6.15;4.18;;;7.60;99.90;;;;;;5069700;28;20048;-70
2024/03/02 02:21:36;;;;;;;7.00;4.07;;;7.60;99.90;;;;;;5069233;28;20052;-70
2024/03/02 02:24:03;;;;;;;7.13;4.25;;;7.50;99.90;;;;;;5071184;28;20543;-70
2024/03/02 02:26:29;;;;;;;6.75;4.43;;;7.50;99.90;;;;;;5073154;28;20040;-70
2024/03/02 02:28:55;;;;;;;6.85;4.57;;;7.50;99.90;;;;;;5074244;28;20519;-70
2024/03/02 02:31:20;;;;;;;6.13;4.40;;;7.50;99.90;;;;;;5074343;28;20045;-70
2024/03/02 02:33:46;;;;;;;6.38;3.90;;;7.50;99.90;;;;;;5074811;28;20051;-70
2024/03/02 02:36:11;;;;;;;6.03;3.85;;;7.50;99.90;;;;;;5074587;28;20439;-70
2024/03/02 02:38:46;;;;;;;5.65;4.13;;;7.50;99.90;;;;;;5074136;28;20404;-71
2024/03/02 02:41:12;;;;;;;7.07;4.50;;;7.50;99.90;;;;;;5073912;28;20044;-70
2024/03/02 02:43:39;;;;;;;6.53;3.45;;;7.50;99.90;;;;;;5074287;28;20048;-70
2024/03/02 02:46:05;;;;;;;6.25;3.25;;;7.60;99.90;;;;;;5074579;28;20036;-70
2024/03/02 02:48:31;;;;;;;4.85;3.35;;;7.60;99.90;;;;;;5074048;28;20066;-70
2024/03/02 02:50:56;;;;;;;4.32;3.00;;;7.60;99.90;;;;;;5072586;28;20040;-70
2024/03/02 02:53:22;;;;;;;5.32;3.45;;;7.70;99.90;;;;;;5074365;28;20385;-70
2024/03/02 02:55:48;;;;;;;4.22;2.72;;;7.70;99.90;;;;;;5073036;28;20044;-70
2024/03/02 02:58:14;;;;;;;4.75;3.67;;;7.70;99.90;;;;;;5073727;28;20131;-70
2024/03/02 03:00:40;;;;;;;4.95;3.40;;;7.70;99.90;;;;;;5074110;28;20488;-70
2024/03/02 03:03:06;;;;;;;5.20;2.72;;;7.80;99.90;;;;;;5074347;28;20438;-70
2024/03/02 03:05:31;;;;;;;5.03;2.78;;;7.80;99.90;;;;;;5072722;28;20037;-70
2024/03/02 03:07:57;;;;;;;6.32;2.85;;;7.80;99.90;;;;;;5073997;28;20033;-70
2024/03/02 03:10:25;;;;;;;4.13;2.78;;;7.80;99.90;;;;;;5072358;28;20044;-70
2024/03/02 03:12:51;;;;;;;6.47;3.33;;;7.80;99.90;;;;;;5072052;28;20052;-70
2024/03/02 03:15:17;;;;;;;4.60;3.05;;;7.90;99.90;;;;;;5055824;28;20140;-70
2024/03/02 03:17:42;;;;;;;5.55;3.13;;;7.90;99.90;;;;;;5072683;28;20040;-70
2024/03/02 03:20:12;;;;;;;6.28;2.92;;;8.00;99.90;;;;;;5073534;28;20078;-70
2024/03/02 03:22:38;;;;;;;4.35;2.65;;;7.90;99.90;;;;;;5071931;28;20032;-70
2024/03/02 03:25:05;;;;;;;4.18;3.03;;;7.80;99.90;;;;;;5072339;28;20040;-70
2024/03/02 03:27:31;;;;;;;6.63;3.05;;;7.80;99.90;;;;;;5072170;28;20044;-70
2024/03/02 03:29:56;;;;;;;5.18;3.00;;;7.80;99.90;;;;;;5073511;28;20029;-70
2024/03/02 03:32:22;;;;;;;4.88;2.72;;;7.80;99.90;;;;;;5073338;28;20163;-70
2024/03/02 03:34:48;;;;;;;5.82;3.10;;;7.80;99.90;;;;;;5073405;28;20040;-70
2024/03/02 03:37:15;;;;;;;3.65;2.72;;;7.80;99.90;;;;;;5072464;28;20040;-70
2024/03/02 03:39:41;;;;;;;4.78;2.47;;;7.80;99.90;;;;;;5073059;28;20044;-70
2024/03/02 03:42:06;;;;;;;4.22;2.53;;;7.80;99.90;;;;;;5071431;28;20047;-70
2024/03/02 03:44:33;;;;;;;4.15;2.47;;;7.80;99.90;;;;;;5055301;28;20463;-70
2024/03/02 03:46:59;;;;;;;4.50;2.50;;;7.80;99.90;;;;;;5055262;28;20072;-70
2024/03/02 03:49:24;;;;;;;3.70;2.55;;;7.80;99.90;;;;;;5072711;28;20072;-70
2024/03/02 03:51:50;;;;;;;4.43;2.33;;;7.90;99.90;;;;;;5072689;28;20127;-70
2024/03/02 03:54:15;;;;;;;3.35;2.25;;;8.00;99.90;;;;;;5073081;28;20410;-70
2024/03/02 03:56:41;;;;;;;3.78;3.17;;;7.90;99.90;;;;;;5072845;28;20036;-70
2024/03/02 03:59:07;;;;;;;3.60;2.45;;;7.90;99.90;;;;;;5054752;28;20040;-70
2024/03/02 04:01:33;;;;;;;3.88;2.10;;;7.90;99.90;;;;;;5072523;28;20048;-70
2024/03/02 04:03:59;;;;;;;4.65;2.00;;;7.90;99.90;;;;;;5071644;28;20049;-70
2024/03/02 04:06:25;;;;;;;3.58;2.17;;;7.90;99.90;;;;;;5072795;28;20233;-70
2024/03/02 04:08:50;;;;;;;3.30;2.25;;;7.90;99.90;;;;;;5071252;28;20037;-70
2024/03/02 04:11:16;;;;;;;3.38;2.30;;;7.70;99.90;;;;;;5072011;28;20047;-70
2024/03/02 04:13:42;;;;;;;4.55;2.08;;;7.80;99.90;;;;;;5072861;28;20110;-70
2024/03/02 04:16:07;;;;;;;4.05;2.40;;;7.80;99.90;;;;;;5072711;28;20051;-70
2024/03/02 04:18:33;;;;;;;3.95;2.97;;;7.70;99.90;;;;;;5072420;28;20040;-70
2024/03/02 04:20:59;;;;;;;3.55;2.15;;;7.60;99.90;;;;;;5072019;28;20412;-70
2024/03/02 04:23:26;;;;;;;4.30;2.53;;;7.70;99.90;;;;;;5054556;28;20036;-70
2024/03/02 04:25:51;;;;;;;4.97;2.35;;;7.60;99.90;;;;;;5072558;28;20083;-70
2024/03/02 04:28:17;;;;;;;3.85;2.60;;;7.60;99.90;;;;;;5072223;28;20445;-70
2024/03/02 04:30:42;;;;;;;4.38;2.45;;;7.60;99.90;;;;;;5071962;28;20036;-70
2024/03/02 04:33:09;;;;;;;4.70;2.17;;;7.60;99.90;;;;;;5072382;28;20037;-70
2024/03/02 04:35:36;;;;;;;3.78;2.35;;;7.60;99.90;;;;;;5071129;28;20178;-70
2024/03/02 04:38:02;;;;;;;5.05;2.60;;;7.60;99.90;;;;;;5072101;28;20866;-70
2024/03/02 04:40:27;;;;;;;4.70;2.10;;;7.60;99.90;;;;;;5072052;28;20044;-70
2024/03/02 04:42:53;;;;;;;5.20;2.72;;;7.60;99.90;;;;;;5071873;28;20037;-70
2024/03/02 04:45:18;;;;;;;3.40;2.30;;;7.60;99.90;;;;;;5072193;28;20510;-70
2024/03/02 04:47:44;;;;;;;4.22;2.13;;;7.60;99.90;;;;;;5072025;28;20040;-71
2024/03/02 04:50:10;;;;;;;5.03;2.30;;;7.60;99.90;;;;;;5071607;28;20484;-71
2024/03/02 04:52:36;;;;;;;3.95;2.42;;;7.60;99.90;;;;;;5070238;28;20044;-71
2024/03/02 04:57:47;;;;;;;5.30;3.15;;;7.60;99.90;;;;;;5072001;28;20060;-71
2024/03/02 05:00:13;;;;;;;7.22;2.35;;;7.60;99.90;;;;;;5070424;28;20090;-71
2024/03/02 05:02:39;;;;;;;3.58;2.50;;;7.70;99.90;;;;;;5071378;28;20196;-71
2024/03/02 05:05:04;;;;;;;3.35;2.50;;;7.70;99.90;;;;;;5071668;28;20123;-71
2024/03/02 05:07:30;;;;;;;4.03;2.80;;;7.70;99.90;;;;;;5070128;28;20032;-71
2024/03/02 05:09:56;;;;;;;4.03;2.47;;;7.70;99.90;;;;;;5071636;28;20063;-71
2024/03/02 05:15:07;;;;;;;4.43;2.83;;;7.70;99.90;;;;;;5071800;28;20076;-71
2024/03/02 05:17:33;;;;;;;5.30;2.90;;;7.60;99.90;;;;;;5071484;28;20028;-71
2024/03/02 05:19:58;;;;;;;3.42;2.47;;;7.60;99.90;;;;;;5071298;28;20579;-71
2024/03/02 05:22:24;;;;;;;4.13;2.38;;;7.70;99.90;;;;;;5071619;28;20115;-71
2024/03/02 05:24:50;;;;;;;5.82;2.63;;;7.70;99.90;;;;;;5053611;28;20488;-71
2024/03/02 05:27:15;;;;;;;5.05;3.15;;;7.70;99.90;;;;;;5071532;28;20064;-71
2024/03/02 05:29:41;;;;;;;8.05;3.40;;;7.70;99.90;;;;;;5071276;28;20090;-71
2024/03/02 05:32:07;;;;;;;5.18;2.55;;;7.70;99.90;;;;;;5069952;28;20540;-71
2024/03/02 05:34:35;;;;;;;4.57;2.65;;;7.70;99.90;;;;;;5071443;28;20545;-71
2024/03/02 05:37:01;;;;;;;6.82;4.25;;;7.70;99.90;;;;;;5070278;28;20045;-71
2024/03/02 05:39:26;;;;;;;3.97;2.55;;;7.60;99.90;;;;;;5071197;28;20052;-71
2024/03/02 05:41:52;;;;;;;4.28;2.85;;;7.70;99.90;;;;;;5070882;28;20044;-71
2024/03/02 05:44:18;;;;;;;4.63;2.63;;;7.60;99.90;;;;;;5071350;28;20407;-71
2024/03/02 05:46:44;;;;;;;6.00;3.00;;;7.60;99.90;;;;;;5071213;28;20041;-71
2024/03/02 05:49:10;;;;;;;4.95;2.70;;;7.60;99.90;;;;;;5070755;28;20496;-71
2024/03/02 05:51:35;;;;;;;5.10;2.92;;;7.60;99.90;;;;;;5069582;28;20037;-71
2024/03/02 05:54:01;;;;;;;4.30;3.00;;;7.60;99.90;;;;;;5069934;28;20051;-71
2024/03/02 05:56:28;;;;;;;5.45;2.67;;;7.60;99.90;;;;;;5070038;28;20090;-71
2024/03/02 06:01:42;;;;;;;4.90;3.00;;;7.60;99.90;;;;;;5073133;28;20049;-71
2024/03/02 06:04:08;;;;;;;3.90;3.13;;;7.60;99.90;;;;;;5075385;28;20036;-71
2024/03/02 06:06:34;;;;;;;5.95;3.15;;;7.60;99.90;;;;;;5075214;28;20033;-71
2024/03/02 06:09:02;;;;;;;4.55;2.45;;;7.60;99.90;;;;;;5074640;28;20102;-71
2024/03/02 06:11:28;;;;;;;5.72;3.22;;;7.60;99.90;;;;;;5074639;28;20102;-71
2024/03/02 06:13:53;;;;;;;3.90;2.80;;;7.60;99.90;;;;;;5074978;28;20040;-71
2024/03/02 06:16:19;;;;;;;4.07;2.85;;;7.60;99.90;;;;;;5074787;28;20040;-72
2024/03/02 06:18:45;;;;;;;5.15;3.35;;;7.60;99.90;;;;;;5074630;28;20040;-71
2024/03/02 06:21:10;;;;;;;4.55;2.78;;;7.60;99.90;;;;;;5074100;28;20044;-71
2024/03/02 06:23:36;;;;;;;4.80;2.92;;;7.60;99.90;;;;;;5074586;28;20484;-71
2024/03/02 06:26:02;;;;;;;4.68;2.95;;;7.60;99.90;;;;;;5073422;28;20035;-71
2024/03/02 06:28:28;;;;;;;6.28;3.10;;;7.50;99.90;;;;;;5074196;28;20183;-71
2024/03/02 06:30:54;;;;;;;4.13;2.55;;;7.60;99.90;;;;;;5074149;28;20033;-71
2024/03/02 06:33:20;;;;;;;3.97;3.05;;;7.50;99.90;;;;;;5074866;28;20089;-71
2024/03/02 06:35:45;;;;;;;6.00;3.42;;;7.40;99.90;;;;;;5074759;28;20119;-71
2024/03/02 06:38:11;;;;;;;5.35;2.65;;;7.40;99.90;;;;;;5074219;28;20048;-71
2024/03/02 06:40:39;;;;;;;4.07;2.85;;;7.40;99.90;;;;;;5074533;28;20105;-71
2024/03/02 06:43:05;;;;;;;3.35;2.70;;;7.40;99.90;;;;;;5074300;28;20048;-71
2024/03/02 06:45:30;;;;;;;6.22;3.10;;;7.40;99.90;;;;;;5074552;28;20415;-71
2024/03/02 06:47:56;;;;;;;4.90;2.92;;;7.30;99.90;;;;;;5074339;28;20522;-71
2024/03/02 06:50:22;;;;;;;3.30;2.80;;;7.20;99.90;;;;;;5074198;28;20029;-71
2024/03/02 06:52:47;;;;;;;5.07;3.08;;;7.20;99.90;;;;;;5073718;28;20579;-71
2024/03/02 06:55:13;;;;;;;3.67;2.78;;;7.10;99.90;;;;;;5074123;28;20037;-71
2024/03/02 06:57:39;;;;;;;4.07;2.90;;;7.10;99.90;;;;;;5074024;28;20044;-71
2024/03/02 07:00:08;;;;;;;6.32;3.35;;;7.20;99.90;;;;;;5072596;28;20041;-71
2024/03/02 07:02:34;;;;;;;5.30;2.97;;;7.20;99.90;;;;;;5073634;28;20583;-71
2024/03/02 07:05:00;;;;;;;4.45;3.20;;;7.20;99.90;;;;;;5073889;28;20536;-71
2024/03/02 07:07:25;;;;;;;5.78;3.10;;;7.20;99.90;;;;;;5073859;28;20036;-71
2024/03/02 07:09:51;;;;;;;4.53;3.22;;;7.30;99.90;;;;;;5072460;28;20049;-71
2024/03/02 07:12:17;;;;;;;4.47;3.05;;;7.30;99.90;;;;;;5070649;28;20044;-71
2024/03/02 07:17:27;;;;;;;5.13;3.15;;;7.40;99.90;;;;;;5072445;28;20047;-71
2024/03/02 07:19:53;;;;;;;6.07;3.40;;;7.40;99.90;;;;;;5072173;28;20127;-71
2024/03/02 07:22:18;;;;;;;5.90;3.65;;;7.50;99.90;;;;;;5073295;28;20091;-71
2024/03/02 07:24:45;;;;;;;4.85;3.58;;;7.50;99.90;;;;;;5072328;28;20041;-71
2024/03/02 07:27:12;;;;;;;4.47;3.20;;;7.50;99.90;;;;;;5072137;28;20089;-72
2024/03/02 07:29:39;;;;;;;4.35;3.28;;;7.50;99.90;;;;;;5072207;28;20036;-71
2024/03/02 07:32:05;;;;;;;4.95;3.38;;;7.60;99.90;;;;;;5072077;28;20048;-72
2024/03/02 07:34:31;;;;;;;4.53;3.10;;;7.60;99.90;;;;;;5055829;28;20559;-71
2024/03/02 07:37:00;;;;;;;6.38;3.05;;;7.60;99.90;;;;;;5072093;28;20170;-71
2024/03/02 07:39:25;;;;;;;5.47;3.38;;;7.70;99.90;;;;;;5071561;28;20040;-71
2024/03/02 07:41:51;;;;;;;4.45;2.95;;;8.00;99.90;;;;;;5071544;28;20059;-71
2024/03/02 07:44:18;;;;;;;4.53;2.88;;;8.10;99.90;;;;;;5073402;28;20041;-71
2024/03/02 07:46:49;;;;;;;4.85;3.40;;;8.30;99.90;;;;;;5073251;28;20044;-71
2024/03/02 07:49:15;;;;;;;3.72;2.97;;;8.50;99.90;;;;;;5070647;28;20037;-73
2024/03/02 07:51:41;;;;;;;7.30;2.95;;;8.70;99.90;;;;;;5073054;28;20123;-73
2024/03/02 07:54:07;;;;;;;6.40;3.25;;;8.90;99.90;;;;;;5084252;28;20491;-71
2024/03/02 07:56:33;;;;;;;4.45;2.70;;;9.20;99.90;;;;;;5084872;28;20078;-71
2024/03/02 07:59:00;;;;;;;4.65;2.70;;;9.30;99.90;;;;;;5092639;28;20122;-71
2024/03/02 08:01:30;;;;;;;4.50;3.00;;;9.50;99.90;;;;;;5092743;28;20040;-71
2024/03/02 08:04:01;;;;;;;3.90;2.97;;;9.60;99.90;;;;;;5091977;28;20038;-71
2024/03/02 08:06:30;;;;;;;5.03;2.72;;;9.80;99.90;;;;;;5092760;28;20036;-71
2024/03/02 08:09:00;;;;;;;3.78;2.50;;;9.70;99.90;;;;;;5091482;28;20549;-72
2024/03/02 08:11:30;;;;;;;6.43;2.47;;;9.50;99.90;;;;;;5092763;28;20114;-71
2024/03/02 08:13:56;;;;;;;5.10;3.22;;;9.40;99.90;;;;;;5092037;28;20048;-71
2024/03/02 08:16:23;;;;;;;4.50;2.60;;;9.20;99.90;;;;;;5092724;28;20036;-71
2024/03/02 08:18:50;;;;;;;4.38;2.95;;;9.10;99.90;;;;;;5084934;28;20441;-71
2024/03/02 08:21:16;;;;;;;4.32;2.60;;;8.90;99.90;;;;;;5078298;28;20033;-71
2024/03/02 08:23:43;;;;;;;3.70;2.50;;;8.80;99.90;;;;;;5070345;28;20425;-71
2024/03/02 08:26:10;;;;;;;4.00;2.70;;;8.80;99.90;;;;;;5072585;28;20032;-71
2024/03/02 08:28:42;;;;;;;5.47;2.50;;;8.70;99.90;;;;;;5072065;28;20045;-71
2024/03/02 08:31:08;;;;;;;3.72;2.45;;;8.60;99.90;;;;;;5071918;28;20046;-71
2024/03/02 08:33:33;;;;;;;4.43;2.85;;;8.50;99.90;;;;;;5072194;28;20123;-71
2024/03/02 08:36:00;;;;;;;5.00;2.40;;;8.80;99.90;;;;;;5071159;28;20041;-71
2024/03/02 08:38:26;;;;;;;4.40;2.47;;;9.10;99.90;;;;;;5070869;28;20042;-71
2024/03/02 08:40:51;;;;;;;3.92;2.38;;;9.30;99.90;;;;;;5071691;28;20052;-71
2024/03/02 08:43:17;;;;;;;4.30;2.20;;;9.70;99.90;;;;;;5072138;28;20520;-71
2024/03/02 08:45:43;;;;;;;4.15;2.10;;;9.80;99.90;;;;;;5072082;28;20032;-71
2024/03/02 08:48:09;;;;;;;3.00;2.17;;;9.90;99.90;;;;;;5071184;28;20097;-71
2024/03/02 08:50:35;;;;;;;2.95;2.22;;;10.20;99.90;;;;;;5072189;28;20459;-71
2024/03/02 08:53:01;;;;;;;4.40;2.20;;;10.40;99.90;;;;;;5071220;28;20040;-71
2024/03/02 08:55:27;;;;;;;4.57;2.05;;;10.40;99.90;;;;;;5071982;28;20595;-71
2024/03/02 08:57:53;;;;;;;5.78;2.25;;;10.50;99.90;;;;;;5071846;28;20633;-71
2024/03/02 09:00:19;;;;;;;3.92;2.30;;;10.50;99.90;;;;;;5071516;28;20048;-71
2024/03/02 09:02:46;;;;;;;2.55;1.92;;;10.50;99.90;;;;;;5071219;28;20519;-71
2024/03/02 09:05:12;;;;;;;3.15;1.98;;;10.60;99.90;;;;;;5071858;28;20036;-73
2024/03/02 09:07:38;;;;;;;3.03;2.25;;;10.70;99.90;;;;;;5071910;28;20044;-71
2024/03/02 09:10:05;;;;;;;3.45;1.75;;;10.70;99.90;;;;;;5071609;28;20048;-71
2024/03/02 09:12:32;;;;;;;3.28;2.03;;;10.70;99.90;;;;;;5071358;28;20431;-71
2024/03/02 09:14:58;;;;;;;2.78;1.63;;;10.70;99.90;;;;;;5071724;28;20144;-71
2024/03/02 09:17:24;;;;;;;3.50;1.80;;;10.70;99.90;;;;;;5071554;28;20032;-71
2024/03/02 09:19:52;;;;;;;5.13;1.55;;;10.70;99.90;;;;;;5071073;28;20380;-71
2024/03/02 09:22:18;;;;;;;5.18;1.67;;;10.70;99.90;;;;;;5077136;28;20559;-71
2024/03/02 09:24:44;;;;;;;3.10;1.73;;;10.80;99.90;;;;;;5080578;28;20056;-71
2024/03/02 09:27:10;;;;;;;2.15;1.20;;;10.80;99.90;;;;;;5079130;28;20500;-71
2024/03/02 09:29:36;;;;;;;2.17;1.17;;;10.70;99.90;;;;;;5069684;28;20040;-71
2024/03/02 09:32:01;;;;;;;4.53;0.93;;;10.70;99.90;;;;;;5069640;28;20052;-71
2024/03/02 09:34:27;;;;;;;4.82;1.10;;;10.70;99.90;;;;;;5070005;28;20182;-71
2024/03/02 09:36:53;;;;;;;4.00;1.13;;;10.70;99.90;;;;;;5069465;28;20040;-71
2024/03/02 09:39:18;;;;;;;1.27;0.80;;;10.70;99.90;;;;;;5070745;28;20111;-71
2024/03/02 09:41:44;;;;;;;4.57;1.17;;;10.70;99.90;;;;;;5069028;28;20040;-71
2024/03/02 09:44:10;;;;;;;1.85;0.90;;;10.80;99.90;;;;;;5070893;28;20032;-71
2024/03/02 09:46:36;;;;;;;2.75;0.90;;;10.80;99.90;;;;;;5070713;28;20484;-71
2024/03/02 09:49:02;;;;;;;2.90;0.75;;;10.80;99.90;;;;;;5070802;28;20041;-72
2024/03/02 09:51:28;;;;;;;5.63;0.80;;;10.70;99.90;;;;;;5070990;28;20514;-71
2024/03/02 09:53:55;;;;;;;1.90;0.80;;;10.70;99.90;;;;;;5071325;28;20124;-71
2024/03/02 09:56:23;;;;;;;4.07;0.88;;;10.70;99.90;;;;;;5071283;28;20646;-72
2024/03/02 09:58:49;;;;;;;2.50;0.68;;;10.70;99.90;;;;;;5069619;28;20041;-71
2024/03/02 10:01:15;;;;;;;1.73;0.90;;;10.70;99.90;;;;;;5069307;28;20045;-71
2024/03/02 10:03:40;;;;;;;0.93;0.68;;;10.70;99.90;;;;;;5070124;28;20102;-71
2024/03/02 10:06:19;;;;;;;2.03;0.90;;;10.80;99.90;;;;;;5069890;28;20520;-71
2024/03/02 10:08:44;;;;;;;1.15;0.63;;;10.90;99.90;;;;;;5069197;28;20040;-72
2024/03/02 10:11:10;;;;;;;1.67;0.80;;;10.90;99.90;;;;;;5070691;28;20040;-71
2024/03/02 10:13:36;;;;;;;1.20;0.80;;;11.00;99.90;;;;;;5069746;28;20036;-71
2024/03/02 10:16:12;;;;;;;3.28;0.70;;;10.90;99.90;;;;;;5069741;28;20072;-71
2024/03/02 10:18:38;;;;;;;2.00;0.85;;;10.90;99.90;;;;;;5070918;28;20079;-71
2024/03/02 10:21:15;;;;;;;2.78;1.30;;;10.90;99.90;;;;;;5070697;28;20072;-72
2024/03/02 10:23:41;;;;;;;1.83;1.30;;;10.90;99.90;;;;;;5071147;28;20115;-71
2024/03/02 10:26:18;;;;;;;2.33;1.00;;;10.90;99.90;;;;;;5070849;28;20119;-71
2024/03/02 10:28:47;;;;;;;1.35;0.75;;;10.90;99.90;;;;;;5070836;28;20408;-70
2024/03/02 10:31:13;;;;;;;3.83;0.70;;;11.00;99.90;;;;;;5069525;28;20068;-71
2024/03/02 10:33:40;;;;;;;1.50;0.80;;;11.00;99.90;;;;;;5071131;28;20512;-71
2024/03/02 10:36:05;;;;;;;4.50;0.90;;;11.00;99.90;;;;;;5071002;28;20051;-71
2024/03/02 10:38:31;;;;;;;1.45;0.70;;;10.90;99.90;;;;;;5069349;28;20036;-71
2024/03/02 10:40:59;;;;;;;0.85;0.50;;;10.80;99.90;;;;;;5070442;28;20044;-71
2024/03/02 10:43:26;;;;;;;1.30;0.80;;;10.80;99.90;;;;;;5070033;28;20067;-71
2024/03/02 10:45:54;;;;;;;2.72;0.88;;;10.80;99.90;;;;;;5051999;28;20097;-71
2024/03/02 10:48:21;;;;;;;1.70;0.70;;;10.90;99.90;;;;;;5082574;22;20094;-73
2024/03/02 10:50:47;;;;;;;1.13;0.60;;;10.80;99.90;;;;;;5034743;28;20056;-73
2024/03/02 10:53:12;;;;;;;1.65;0.70;;;10.90;99.90;;;;;;5068416;28;20241;-73
2024/03/02 10:55:38;;;;;;;2.50;1.13;;;10.80;99.90;;;;;;5034877;28;20067;-74
2024/03/02 10:58:06;;;;;;;2.53;0.90;;;10.80;99.90;;;;;;5068538;28;20386;-73
2024/03/02 11:00:34;;;;;;;3.35;0.93;;;10.80;99.90;;;;;;5034193;28;20136;-73
2024/03/02 11:03:08;;;;;;;2.22;1.08;;;10.80;99.90;;;;;;5034577;28;20033;-73
2024/03/02 11:05:40;;;;;;;3.20;1.02;;;11.00;99.90;;;;;;5053693;28;20029;-73
2024/03/02 11:08:13;;;;;;;3.70;1.33;;;11.00;99.90;;;;;;5036039;28;20413;-73
2024/03/02 11:10:45;;;;;;;2.10;1.00;;;11.10;99.90;;;;;;5035222;28;20488;-73
2024/03/02 11:13:12;;;;;;;5.80;1.02;;;11.10;99.90;;;;;;5016462;28;20452;-73
2024/03/02 11:15:40;;;;;;;1.55;1.13;;;11.10;99.90;;;;;;5030942;28;20045;-73
2024/03/02 11:18:08;;;;;;;3.58;1.50;;;11.20;99.90;;;;;;5035260;28;20056;-73
2024/03/02 11:20:38;;;;;;;3.05;1.48;;;11.10;99.90;;;;;;5053218;28;20041;-73
2024/03/02 11:23:08;;;;;;;4.65;1.40;;;11.10;99.90;;;;;;5035262;28;20041;-74
2024/03/02 11:25:34;;;;;;;2.70;1.05;;;11.10;99.90;;;;;;5035695;28;20040;-73
2024/03/02 11:28:02;;;;;;;2.47;1.85;;;11.20;99.90;;;;;;5053691;28;20386;-74
2024/03/02 11:30:34;;;;;;;4.68;1.85;;;11.30;99.90;;;;;;5053326;28;20578;-73
2024/03/02 11:33:09;;;;;;;2.42;1.65;;;11.30;99.90;;;;;;5035206;28;20047;-73
2024/03/02 11:35:35;;;;;;;4.80;2.15;;;11.30;99.90;;;;;;5053318;28;20440;-73
2024/03/02 11:38:03;;;;;;;2.95;1.60;;;11.20;99.90;;;;;;5034811;28;20039;-74
2024/03/02 11:40:29;;;;;;;3.97;2.10;;;11.30;99.90;;;;;;5018379;28;20456;-74
2024/03/02 11:42:56;;;;;;;3.50;2.05;;;11.30;99.90;;;;;;5052404;28;20033;-73
2024/03/02 11:45:28;;;;;;;5.15;2.10;;;11.30;99.90;;;;;;5035080;28;20485;-74
2024/03/02 11:47:54;;;;;;;2.67;1.42;;;11.30;99.90;;;;;;5053067;28;20029;-73
2024/03/02 11:50:46;;;;;;;3.05;1.80;;;11.30;99.90;;;;;;5034788;28;20397;-73
2024/03/02 11:53:13;;;;;;;3.28;1.88;;;11.30;99.90;;;;;;5015344;28;20106;-73
2024/03/02 11:55:46;;;;;;;2.75;1.63;;;11.30;99.90;;;;;;5033074;28;20508;-73
2024/03/02 11:58:12;;;;;;;3.38;1.50;;;11.30;99.90;;;;;;5014296;28;20045;-73
2024/03/02 12:00:38;;;;;;;2.78;1.90;;;11.40;99.90;;;;;;5014812;28;20085;-73
2024/03/02 12:03:04;;;;;;;4.55;2.17;;;11.40;99.90;;;;;;5032844;28;20077;-73
2024/03/02 12:05:30;;;;;;;2.45;1.90;;;11.40;99.90;;;;;;5015178;28;20563;-73
2024/03/02 12:08:00;;;;;;;2.92;2.22;;;11.50;99.90;;;;;;5015031;28;20045;-73
2024/03/02 12:10:27;;;;;;;3.22;2.00;;;11.60;99.90;;;;;;5021106;28;20065;-73
2024/03/02 12:13:11;;;;;;;2.33;1.83;;;11.60;99.90;;;;;;5051812;28;20041;-72
2024/03/02 12:15:39;;;;;;;2.30;1.52;;;11.60;99.90;;;;;;5052834;28;20029;-73
2024/03/02 12:18:05;;;;;;;3.13;1.60;;;11.60;99.90;;;;;;5035008;28;20033;-73
2024/03/02 12:20:33;;;;;;;1.98;1.60;;;11.70;99.90;;;;;;5052336;28;20049;-70
2024/03/02 12:23:04;;;;;;;3.00;1.90;;;11.70;99.90;;;;;;5034248;28;20124;-73
2024/03/02 12:25:31;;;;;;;3.05;1.90;;;11.70;99.90;;;;;;5034620;28;20056;-73
2024/03/02 12:27:59;;;;;;;2.83;2.17;;;11.70;99.90;;;;;;5033455;28;20045;-73
2024/03/02 12:30:28;;;;;;;3.17;2.38;;;11.70;99.90;;;;;;5031756;28;20644;-73
2024/03/02 12:32:55;;;;;;;4.00;2.42;;;11.70;99.90;;;;;;5033497;28;20035;-73
2024/03/02 12:35:20;;;;;;;4.32;2.55;;;11.70;99.90;;;;;;5033846;28;20029;-72
2024/03/02 12:37:52;;;;;;;4.32;2.28;;;11.70;99.90;;;;;;5033950;28;20037;-72
2024/03/02 12:40:20;;;;;;;5.03;2.58;;;11.80;99.90;;;;;;5050743;28;20048;-74
2024/03/02 12:42:46;;;;;;;3.97;2.60;;;11.90;99.90;;;;;;5051728;28;20052;-73
2024/03/02 12:45:13;;;;;;;5.03;3.03;;;11.90;99.90;;;;;;5034479;28;20116;-72
2024/03/02 12:47:40;;;;;;;2.85;2.40;;;11.80;99.90;;;;;;5034341;28;20404;-72
2024/03/02 12:50:07;;;;;;;4.13;2.67;;;11.80;99.90;;;;;;5051864;28;20033;-72
2024/03/02 12:52:33;;;;;;;4.10;3.10;;;11.90;99.90;;;;;;5033502;28;20036;-72
2024/03/02 12:55:00;;;;;;;3.50;3.20;;;11.80;99.90;;;;;;5032962;28;20044;-73
2024/03/02 12:57:27;;;;;;;4.90;4.18;;;11.70;99.90;;;;;;5034064;28;20064;-74
2024/03/02 13:00:00;;;;;;;7.07;4.18;;;11.70;99.90;;;;;;5033603;28;20045;-72
2024/03/02 13:02:30;;;;;;;5.05;4.18;;;11.70;99.90;;;;;;5051036;28;20041;-72